No particular awareness of the weather is required.    There are no Weather-warnings


Meteo18 Weather Cam more information Meteo18 Weather Cam


Thunder radar more information blitzortung!


Rain radar more information rain snow radar


Visit our other weather sites:

Template documentation
and downloads

And another site



Weather Underground History page Text

Daily Summary for June 29, 2017 Units:  English    Metric   Both
« Previous Day
Next Day »
Daily Weekly Monthly Yearly Custom
  High: Low: Average:
Temperature: TemperatureC °F 13.4 °F 15.6 °F
Dew Point: DewpointC °F 10.9 °F 12.5 °F
Humidity: Humidity % 57 % 82 %
Wind Speed: WindSpeedKMH mph 0.0 mph 9.1 mph
Wind Gust: WindSpeedGustKMH mph - -
Wind:- - SW
Pressure: PressurehPa in 999.5 in -
Precipitation: 6.1 in    
Historical Graphs
 
 
Tabular Data for June 29, 2017
Time Temperature Dew Point Pressure Wind Wind Speed Wind Gust Humidity Rainfall Rate (Hourly)
TemperatureC °F DewpointC °F PressurehPa in Calm     Humidity % HourlyPrecipMM in
00:02 15.2 °F 12.9 °F 1000.9 in SW 4.8 mph 6.4 mph 86 % 0.0 in
00:12 15.0 °F 12.9 °F 1000.9 in SSW 4.8 mph 6.4 mph 87 % 0.0 in
00:17 14.9 °F 12.8 °F 1000.9 in SSW 4.8 mph 6.4 mph 87 % 0.0 in
00:22 14.9 °F 12.8 °F 1000.9 in SSW 4.8 mph 6.4 mph 87 % 0.0 in
00:27 14.9 °F 12.8 °F 1000.9 in SW 6.4 mph 8.0 mph 87 % 0.0 in
00:32 15.0 °F 12.9 °F 1000.9 in SSW 4.8 mph 8.0 mph 87 % 0.0 in
00:42 15.1 °F 13.1 °F 1000.6 in SW 11.3 mph 11.3 mph 88 % 0.0 in
00:52 15.5 °F 13.3 °F 1000.6 in SSW 4.8 mph 14.5 mph 87 % 0.0 in
01:02 15.8 °F 13.3 °F 1000.6 in SW 9.7 mph 14.5 mph 85 % 0.0 in
01:07 15.7 °F 13.2 °F 1000.6 in SSW 4.8 mph 14.5 mph 85 % 0.0 in
01:12 15.5 °F 13.2 °F 1000.6 in SW 8.0 mph 14.5 mph 86 % 0.0 in
01:17 15.3 °F 13.1 °F 1000.6 in SW 6.4 mph 12.9 mph 87 % 0.0 in
01:22 15.2 °F 13.0 °F 1000.6 in WSW 8.0 mph 9.7 mph 87 % 0.0 in
01:32 15.5 °F 13.2 °F 1000.6 in SW 11.3 mph 12.9 mph 86 % 0.0 in
01:37 15.7 °F 13.2 °F 1000.6 in SSE 6.4 mph 16.1 mph 85 % 0.0 in
01:42 15.7 °F 13.2 °F 1000.6 in SSW 6.4 mph 16.1 mph 85 % 0.0 in
01:47 15.7 °F 13.2 °F 1000.2 in SSW 6.4 mph 19.3 mph 85 % 0.0 in
01:52 15.6 °F 13.1 °F 1000.2 in SSW 3.2 mph 19.3 mph 85 % 0.0 in
01:57 15.3 °F 13.0 °F 1000.2 in SW 4.8 mph 19.3 mph 86 % 0.0 in
02:02 15.1 °F 13.0 °F 1000.2 in SSW 4.8 mph 16.1 mph 87 % 0.0 in
02:07 14.9 °F 12.9 °F 1000.2 in SSW 3.2 mph 9.7 mph 88 % 0.0 in
02:12 14.8 °F 12.8 °F 1000.2 in SW 3.2 mph 9.7 mph 88 % 0.0 in
02:17 14.6 °F 12.8 °F 1000.2 in SW 4.8 mph 6.4 mph 89 % 0.0 in
02:22 14.5 °F 12.9 °F 999.9 in SSW 4.8 mph 6.4 mph 90 % 0.0 in
02:32 14.4 °F 12.8 °F 999.9 in SSW 4.8 mph 11.3 mph 90 % 0.0 in
02:42 14.4 °F 12.8 °F 999.9 in SW 4.8 mph 11.3 mph 90 % 0.0 in
02:52 14.2 °F 12.6 °F 999.9 in SW 9.7 mph 9.7 mph 90 % 0.0 in
02:57 14.1 °F 12.7 °F 999.9 in SW 8.0 mph 9.7 mph 91 % 0.0 in
03:02 13.9 °F 12.5 °F 999.9 in SW 4.8 mph 11.3 mph 91 % 0.0 in
03:07 14.0 °F 12.7 °F 999.9 in SSW 9.7 mph 11.3 mph 92 % 0.0 in
03:12 14.1 °F 12.8 °F 999.9 in WSW 6.4 mph 11.3 mph 92 % 0.0 in
03:17 14.2 °F 12.8 °F 999.9 in SSW 12.9 mph 17.7 mph 91 % 0.0 in
03:22 14.2 °F 12.8 °F 999.9 in SW 9.7 mph 17.7 mph 91 % 0.0 in
03:32 14.1 °F 12.7 °F 999.5 in West 3.2 mph 16.1 mph 91 % 0.0 in
03:42 14.1 °F 12.8 °F 999.5 in SW 4.8 mph 11.3 mph 92 % 0.0 in
03:47 14.3 °F 13.0 °F 999.5 in SSW 4.8 mph 11.3 mph 92 % 0.0 in
03:52 14.4 °F 13.1 °F 999.5 in South 6.4 mph 11.3 mph 92 % 0.0 in
03:57 14.6 °F 13.1 °F 999.5 in SW 9.7 mph 14.5 mph 91 % 0.0 in
04:02 14.7 °F 13.2 °F 999.5 in SW 9.7 mph 14.5 mph 91 % 0.0 in
04:12 14.6 °F 13.3 °F 999.5 in SSW 11.3 mph 14.5 mph 92 % 0.0 in
04:17 14.5 °F 13.2 °F 999.9 in SW 6.4 mph 16.1 mph 92 % 0.3 in
04:22 14.4 °F 13.3 °F 999.5 in SSW 1.6 mph 16.1 mph 93 % 0.3 in
04:27 14.4 °F 13.3 °F 999.5 in SW 3.2 mph 16.1 mph 93 % 0.3 in
04:32 14.3 °F 13.2 °F 999.5 in SSW 4.8 mph 14.5 mph 93 % 0.3 in
04:42 14.1 °F 13.0 °F 999.9 in SW 8.0 mph 12.9 mph 93 % 0.3 in
04:47 14.1 °F 13.1 °F 999.9 in SSW 3.2 mph 12.9 mph 94 % 0.3 in
04:52 14.1 °F 13.1 °F 999.9 in SSW 3.2 mph 11.3 mph 94 % 0.3 in
04:57 14.1 °F 13.1 °F 999.9 in SSW 3.2 mph 11.3 mph 94 % 0.3 in
05:02 14.1 °F 13.1 °F 999.9 in SW 3.2 mph 8.0 mph 94 % 0.3 in
05:12 13.9 °F 12.9 °F 999.9 in SW 1.6 mph 8.0 mph 94 % 0.3 in
05:17 13.9 °F 12.9 °F 999.9 in Calm   8.0 mph 94 % 0.3 in
05:22 13.8 °F 12.9 °F 999.9 in Calm   6.4 mph 94 % 0.0 in
05:27 13.7 °F 12.8 °F 999.9 in Calm   6.4 mph 94 % 0.0 in
05:32 13.6 °F 12.7 °F 999.9 in SW 1.6 mph 3.2 mph 94 % 0.0 in
05:37 13.5 °F 12.6 °F 999.9 in WSW 1.6 mph 3.2 mph 94 % 0.0 in
05:42 13.4 °F 12.5 °F 999.9 in SSW 3.2 mph 3.2 mph 94 % 0.0 in
05:47 13.5 °F 12.6 °F 999.9 in SSW 3.2 mph 3.2 mph 94 % 0.0 in
05:52 13.5 °F 12.7 °F 999.9 in SW 3.2 mph 6.4 mph 95 % 0.0 in
05:57 13.6 °F 12.8 °F 999.9 in SW 6.4 mph 6.4 mph 95 % 0.0 in
06:02 13.7 °F 12.9 °F 999.9 in SW 3.2 mph 9.7 mph 95 % 0.0 in
06:07 13.8 °F 13.0 °F 999.9 in SSW 3.2 mph 9.7 mph 95 % 0.0 in
06:12 13.9 °F 12.9 °F 999.9 in SSW 3.2 mph 9.7 mph 94 % 0.0 in
06:17 14.0 °F 13.0 °F 1000.2 in SW 3.2 mph 9.7 mph 94 % 0.0 in
06:22 14.1 °F 13.1 °F 1000.2 in SW 1.6 mph 8.0 mph 94 % 0.0 in
06:32 14.2 °F 13.2 °F 1000.2 in South 3.2 mph 8.0 mph 94 % 0.0 in
06:37 14.2 °F 13.2 °F 1000.2 in South 1.6 mph 6.4 mph 94 % 0.0 in
06:42 14.2 °F 13.2 °F 1000.2 in WSW 8.0 mph 8.0 mph 94 % 0.0 in
06:47 14.3 °F 13.3 °F 1000.2 in WSW 8.0 mph 8.0 mph 94 % 0.0 in
06:52 14.3 °F 13.3 °F 1000.2 in SSW 3.2 mph 9.7 mph 94 % 0.0 in
07:02 14.4 °F 13.4 °F 1000.6 in WNW 8.0 mph 9.7 mph 94 % 0.0 in
07:12 14.5 °F 13.5 °F 1000.6 in West 4.8 mph 14.5 mph 94 % 0.0 in
07:17 14.5 °F 13.5 °F 1000.6 in West 3.2 mph 14.5 mph 94 % 0.0 in
07:22 14.6 °F 13.6 °F 1000.6 in WSW 3.2 mph 14.5 mph 94 % 0.0 in
07:32 14.6 °F 13.5 °F 1000.6 in West 3.2 mph 9.7 mph 93 % 0.0 in
07:37 14.7 °F 13.6 °F 1000.9 in WNW 8.0 mph 9.7 mph 93 % 0.0 in
07:42 14.7 °F 13.2 °F 1000.9 in WNW 8.0 mph 12.9 mph 91 % 0.0 in
07:47 14.7 °F 13.1 °F 1000.9 in West 6.4 mph 12.9 mph 90 % 0.0 in
07:52 14.7 °F 13.1 °F 1000.9 in WNW 8.0 mph 17.7 mph 90 % 0.0 in
07:57 14.7 °F 13.1 °F 1000.9 in West 6.4 mph 17.7 mph 90 % 0.0 in
08:02 14.7 °F 13.1 °F 1000.9 in West 8.0 mph 17.7 mph 90 % 0.0 in
08:12 14.7 °F 12.7 °F 1001.2 in NW 12.9 mph 20.9 mph 88 % 0.0 in
08:17 14.8 °F 13.0 °F 1001.2 in WSW 6.4 mph 20.9 mph 89 % 0.0 in
08:27 14.6 °F 12.5 °F 1001.2 in West 6.4 mph 20.9 mph 87 % 0.0 in
08:32 14.6 °F 12.3 °F 1001.2 in West 12.9 mph 17.7 mph 86 % 0.0 in
08:37 14.6 °F 11.9 °F 1001.2 in West 3.2 mph 17.7 mph 84 % 0.0 in
08:42 14.6 °F 11.9 °F 1001.2 in WNW 6.4 mph 16.1 mph 84 % 0.0 in
08:47 14.6 °F 12.1 °F 1001.2 in West 3.2 mph 16.1 mph 85 % 0.0 in
08:52 14.6 °F 12.1 °F 1001.2 in SSW 1.6 mph 20.9 mph 85 % 0.0 in
08:57 14.6 °F 12.1 °F 1001.6 in West 8.0 mph 20.9 mph 85 % 0.0 in
09:02 14.6 °F 12.3 °F 1001.6 in WSW 4.8 mph 12.9 mph 86 % 0.0 in
09:12 14.4 °F 12.1 °F 1001.6 in West 3.2 mph 17.7 mph 86 % 0.0 in
09:17 14.5 °F 12.2 °F 1001.6 in WSW 6.4 mph 17.7 mph 86 % 0.0 in
09:22 14.6 °F 12.3 °F 1001.6 in West 12.9 mph 17.7 mph 86 % 0.0 in
09:32 15.2 °F 12.7 °F 1001.9 in WSW 9.7 mph 14.5 mph 85 % 0.0 in
09:37 15.5 °F 12.8 °F 1001.9 in WSW 9.7 mph 14.5 mph 84 % 0.0 in
09:42 15.7 °F 12.1 °F 1001.9 in WSW 6.4 mph 19.3 mph 79 % 0.0 in
09:47 15.9 °F 12.6 °F 1001.6 in SW 14.5 mph 19.3 mph 81 % 0.0 in
09:52 16.2 °F 12.6 °F 1001.6 in West 4.8 mph 22.5 mph 79 % 0.0 in
09:57 16.4 °F 11.5 °F 1001.9 in SW 11.3 mph 22.5 mph 73 % 0.0 in
10:02 16.2 °F 11.6 °F 1001.9 in WSW 20.9 mph 20.9 mph 74 % 0.0 in
10:07 16.1 °F 11.3 °F 1001.9 in SW 6.4 mph 20.9 mph 73 % 0.0 in
10:12 16.3 °F 11.7 °F 1001.9 in WNW 20.9 mph 27.4 mph 74 % 0.0 in
10:17 16.4 °F 12.0 °F 1001.9 in SW 14.5 mph 27.4 mph 75 % 0.0 in
10:22 16.5 °F 11.6 °F 1001.9 in WNW 3.2 mph 30.6 mph 73 % 0.3 in
10:32 16.6 °F 11.5 °F 1002.3 in West 14.5 mph 27.4 mph 72 % 0.3 in
10:37 16.8 °F 11.3 °F 1002.3 in West 17.7 mph 27.4 mph 70 % 0.3 in
10:42 16.9 °F 11.4 °F 1002.3 in West 11.3 mph 29.0 mph 70 % 0.3 in
10:52 17.1 °F 12.0 °F 1002.3 in SW 12.9 mph 29.0 mph 72 % 0.3 in
10:57 17.0 °F 11.9 °F 1002.3 in WSW 12.9 mph 29.0 mph 72 % 0.3 in
11:02 17.1 °F 12.0 °F 1002.3 in West 6.4 mph 24.1 mph 72 % 0.3 in
11:12 16.7 °F 11.8 °F 1002.3 in West 14.5 mph 19.3 mph 73 % 0.3 in
11:17 16.8 °F 11.9 °F 1002.3 in WSW 6.4 mph 19.3 mph 73 % 0.3 in
11:22 16.9 °F 12.0 °F 1002.3 in WSW 11.3 mph 25.7 mph 73 % 0.0 in
11:27 17.1 °F 12.0 °F 1002.3 in West 11.3 mph 25.7 mph 72 % 0.0 in
11:32 17.1 °F 12.0 °F 1001.9 in West 14.5 mph 19.3 mph 72 % 0.0 in
11:42 17.1 °F 12.2 °F 1001.9 in SW 8.0 mph 20.9 mph 73 % 0.0 in
11:47 17.4 °F 12.5 °F 1001.9 in West 4.8 mph 20.9 mph 73 % 0.0 in
11:52 17.4 °F 11.9 °F 1002.3 in West 12.9 mph 19.3 mph 70 % 0.0 in
11:57 17.2 °F 11.9 °F 1001.9 in West 12.9 mph 19.3 mph 71 % 0.0 in
12:02 17.1 °F 11.8 °F 1002.3 in SW 11.3 mph 27.4 mph 71 % 0.0 in
12:07 17.1 °F 11.8 °F 1002.3 in West 12.9 mph 27.4 mph 71 % 0.0 in
12:12 17.2 °F 12.5 °F 1002.3 in SSW 12.9 mph 30.6 mph 74 % 0.0 in
12:17 17.5 °F 13.2 °F 1002.3 in SSW 12.9 mph 30.6 mph 76 % 0.0 in
12:22 17.6 °F 12.9 °F 1002.3 in SW 16.1 mph 30.6 mph 74 % 0.0 in
12:32 17.7 °F 12.4 °F 1002.3 in WNW 11.3 mph 30.6 mph 71 % 0.0 in
12:37 17.7 °F 12.4 °F 1002.3 in WSW 12.9 mph 32.2 mph 71 % 0.0 in
12:42 17.7 °F 11.9 °F 1002.3 in WSW 17.7 mph 32.2 mph 69 % 0.0 in
12:47 18.4 °F 12.6 °F 1002.3 in WSW 27.4 mph 32.2 mph 69 % 0.0 in
12:52 17.9 °F 11.9 °F 1002.3 in WSW 25.7 mph 32.2 mph 68 % 0.0 in
12:57 16.9 °F 12.6 °F 1002.3 in WSW 6.4 mph 32.2 mph 76 % 0.0 in
13:02 16.6 °F 12.7 °F 1002.3 in West 8.0 mph 32.2 mph 78 % 0.0 in
13:12 17.3 °F 13.2 °F 1002.3 in WSW 12.9 mph 29.0 mph 77 % 0.0 in
13:17 17.5 °F 12.6 °F 1002.3 in SW 12.9 mph 29.0 mph 73 % 0.0 in
13:22 16.3 °F 12.5 °F 1002.9 in WSW 24.1 mph 38.6 mph 78 % 0.0 in
13:27 14.8 °F 12.1 °F 1002.9 in SW 19.3 mph 38.6 mph 84 % 0.0 in
13:37 13.6 °F 11.6 °F 1002.9 in WSW 9.7 mph 40.2 mph 88 % 2.3 in
13:47 13.6 °F 12.0 °F 1002.9 in SW 12.9 mph 27.4 mph 90 % 3.3 in
13:52 13.8 °F 12.2 °F 1002.9 in SW 12.9 mph 25.7 mph 90 % 3.3 in
13:57 14.1 °F 12.5 °F 1002.9 in SW 9.7 mph 25.7 mph 90 % 3.3 in
14:02 14.4 °F 12.8 °F 1002.9 in SW 6.4 mph 20.9 mph 90 % 3.3 in
14:12 15.2 °F 13.6 °F 1002.9 in SW 3.2 mph 14.5 mph 90 % 3.3 in
14:17 16.0 °F 14.5 °F 1002.9 in WNW 3.2 mph 14.5 mph 91 % 3.3 in
14:22 15.9 °F 13.6 °F 1002.9 in WSW 4.8 mph 12.9 mph 86 % 3.3 in
14:32 16.5 °F 14.5 °F 1002.9 in WNW 9.7 mph 11.3 mph 88 % 1.0 in
14:42 17.1 °F 13.8 °F 1002.9 in West 8.0 mph 12.9 mph 81 % 0.3 in
14:52 17.6 °F 13.1 °F 1002.6 in South 17.7 mph 19.3 mph 75 % 0.0 in
14:57 18.0 °F 13.5 °F 1002.6 in SW 22.5 mph 25.7 mph 75 % 0.0 in
15:02 18.3 °F 13.6 °F 1002.9 in West 6.4 mph 25.7 mph 74 % 0.0 in
15:12 17.7 °F 13.6 °F 1002.9 in West 11.3 mph 27.4 mph 77 % 0.3 in
15:17 17.7 °F 13.8 °F 1002.9 in SW 8.0 mph 27.4 mph 78 % 0.3 in
15:22 17.8 °F 13.9 °F 1002.6 in SW 11.3 mph 27.4 mph 78 % 0.3 in
15:32 18.0 °F 12.7 °F 1002.6 in SW 17.7 mph 19.3 mph 71 % 0.3 in
15:42 18.5 °F 12.7 °F 1002.6 in SSW 14.5 mph 27.4 mph 69 % 0.3 in
15:47 18.6 °F 12.4 °F 1002.6 in SW 12.9 mph 33.8 mph 67 % 0.3 in
15:52 18.9 °F 12.2 °F 1002.6 in SW 11.3 mph 33.8 mph 65 % 0.3 in
15:57 19.4 °F 11.9 °F 1002.6 in SW 19.3 mph 33.8 mph 62 % 0.3 in
16:07 19.6 °F 11.4 °F 1002.6 in SSW 22.5 mph 38.6 mph 59 % 0.0 in
16:12 19.6 °F 11.9 °F 1002.3 in WSW 19.3 mph 38.6 mph 61 % 0.0 in
16:17 20.1 °F 12.3 °F 1002.3 in WSW 24.1 mph 35.4 mph 61 % 0.0 in
16:37 19.7 °F 10.9 °F 1002.3 in West 4.8 mph 38.6 mph 57 % 0.0 in
16:42 19.4 °F 10.9 °F 1002.3 in South 17.7 mph 38.6 mph 58 % 0.0 in
16:52 17.8 °F 12.5 °F 1002.6 in West 16.1 mph 41.8 mph 71 % 0.0 in
17:02 16.9 °F 12.6 °F 1002.9 in SW 17.7 mph 35.4 mph 76 % 0.0 in
17:12 17.4 °F 13.1 °F 1002.6 in West 8.0 mph 24.1 mph 76 % 0.3 in
17:17 17.8 °F 12.9 °F 1002.6 in SW 12.9 mph 22.5 mph 73 % 0.3 in
17:22 18.0 °F 12.4 °F 1002.6 in WSW 9.7 mph 22.5 mph 70 % 0.3 in
17:32 17.9 °F 12.8 °F 1002.9 in WSW 11.3 mph 24.1 mph 72 % 0.3 in
17:42 16.6 °F 12.4 °F 1002.9 in WSW 8.0 mph 24.1 mph 76 % 0.3 in
17:47 16.7 °F 13.0 °F 1002.9 in WSW 12.9 mph 43.4 mph 79 % 1.0 in
17:57 17.2 °F 13.3 °F 1002.9 in SW 4.8 mph 33.8 mph 78 % 1.0 in
18:02 17.6 °F 13.7 °F 1002.9 in West 8.0 mph 27.4 mph 78 % 1.0 in
18:12 17.4 °F 13.3 °F 1002.9 in WSW 11.3 mph 27.4 mph 77 % 0.8 in
18:17 17.1 °F 12.8 °F 1003.3 in SW 20.9 mph 20.9 mph 76 % 0.8 in
18:22 16.7 °F 13.0 °F 1002.9 in WSW 16.1 mph 20.9 mph 79 % 0.8 in
18:27 16.3 °F 12.8 °F 1002.9 in SW 11.3 mph 25.7 mph 80 % 1.5 in
18:32 16.5 °F 13.4 °F 1002.9 in SW 14.5 mph 25.7 mph 82 % 1.5 in
18:37 16.7 °F 13.2 °F 1002.9 in SW 14.5 mph 24.1 mph 80 % 1.3 in
18:42 16.7 °F 13.0 °F 1003.3 in SW 16.1 mph 24.1 mph 79 % 1.3 in
18:52 17.4 °F 13.1 °F 1003.3 in SW 17.7 mph 22.5 mph 76 % 0.8 in
18:57 17.7 °F 12.8 °F 1003.3 in WSW 24.1 mph 30.6 mph 73 % 0.8 in
19:02 17.6 °F 12.5 °F 1003.3 in SW 16.1 mph 30.6 mph 72 % 0.8 in
19:12 16.9 °F 12.8 °F 1003.3 in South 12.9 mph 37.0 mph 77 % 0.8 in
19:17 16.6 °F 12.7 °F 1003.6 in WSW 11.3 mph 37.0 mph 78 % 0.0 in
19:22 16.5 °F 12.5 °F 1003.6 in SW 12.9 mph 37.0 mph 77 % 0.0 in
19:27 16.5 °F 12.7 °F 1003.6 in South 8.0 mph 27.4 mph 78 % 0.0 in
19:32 16.4 °F 12.6 °F 1003.6 in SW 11.3 mph 27.4 mph 78 % 0.0 in
19:37 16.6 °F 12.6 °F 1003.6 in West 17.7 mph 27.4 mph 77 % 0.0 in
19:42 16.6 °F 12.6 °F 1003.9 in SW 30.6 mph 30.6 mph 77 % 0.0 in
19:47 16.0 °F 11.8 °F 1003.9 in South 11.3 mph 45.1 mph 76 % 0.0 in
19:52 15.6 °F 11.8 °F 1003.9 in WSW 20.9 mph 45.1 mph 78 % 0.0 in
19:57 15.4 °F 11.8 °F 1003.9 in SW 9.7 mph 45.1 mph 79 % 0.0 in
20:02 15.6 °F 11.8 °F 1004.3 in SW 14.5 mph 45.1 mph 78 % 0.0 in
20:12 15.8 °F 12.0 °F 1004.3 in West 9.7 mph 29.0 mph 78 % 0.0 in
20:17 15.9 °F 12.3 °F 1004.3 in WSW 8.0 mph 24.1 mph 79 % 0.0 in
20:22 16.0 °F 12.4 °F 1004.3 in WSW 12.9 mph 29.0 mph 79 % 0.3 in
20:27 15.9 °F 12.3 °F 1004.3 in SSW 9.7 mph 29.0 mph 79 % 0.3 in
20:32 15.7 °F 12.3 °F 1004.3 in WSW 9.7 mph 29.0 mph 80 % 0.3 in
20:42 15.7 °F 12.3 °F 1004.6 in SW 8.0 mph 25.7 mph 80 % 0.3 in
20:47 15.6 °F 12.2 °F 1004.3 in West 4.8 mph 22.5 mph 80 % 0.3 in
20:52 15.5 °F 12.3 °F 1004.6 in SW 6.4 mph 22.5 mph 81 % 0.3 in
20:57 15.5 °F 12.3 °F 1004.6 in WSW 8.0 mph 22.5 mph 81 % 0.3 in
21:02 15.4 °F 12.3 °F 1004.6 in SSW 8.0 mph 20.9 mph 82 % 0.3 in
21:12 15.1 °F 12.4 °F 1004.6 in SSW 6.4 mph 20.9 mph 84 % 0.3 in
21:17 14.8 °F 12.3 °F 1004.6 in SW 4.8 mph 19.3 mph 85 % 0.3 in
21:22 14.7 °F 12.4 °F 1005.0 in SSW 3.2 mph 16.1 mph 86 % 0.0 in
21:32 14.4 °F 12.4 °F 1005.0 in SW 3.2 mph 16.1 mph 88 % 0.0 in
21:42 14.3 °F 12.5 °F 1005.0 in SSW 3.2 mph 9.7 mph 89 % 0.0 in
21:47 14.3 °F 12.5 °F 1005.0 in South 3.2 mph 8.0 mph 89 % 0.0 in
21:52 14.3 °F 12.5 °F 1005.3 in SSW 6.4 mph 8.0 mph 89 % 0.0 in
21:57 14.3 °F 12.2 °F 1005.3 in SSW 4.8 mph 11.3 mph 87 % 0.0 in
22:02 14.4 °F 12.1 °F 1005.3 in SSW 4.8 mph 14.5 mph 86 % 0.0 in
22:12 14.6 °F 11.7 °F 1005.3 in SSW 9.7 mph 14.5 mph 83 % 0.0 in
22:17 14.6 °F 11.7 °F 1005.3 in SSW 6.4 mph 16.1 mph 83 % 0.0 in
22:22 14.6 °F 11.7 °F 1005.6 in SSW 9.7 mph 16.1 mph 83 % 0.0 in
22:32 14.6 °F 11.7 °F 1005.6 in SSW 6.4 mph 17.7 mph 83 % 0.0 in
22:37 14.6 °F 11.7 °F 1005.6 in SW 8.0 mph 17.7 mph 83 % 0.0 in
22:42 14.5 °F 11.8 °F 1005.6 in SW 11.3 mph 17.7 mph 84 % 0.0 in
22:47 14.6 °F 11.7 °F 1005.6 in SSW 11.3 mph 16.1 mph 83 % 0.0 in
22:52 14.6 °F 11.7 °F 1005.6 in SW 11.3 mph 16.1 mph 83 % 0.0 in
22:57 14.6 °F 11.7 °F 1005.6 in SW 12.9 mph 17.7 mph 83 % 0.0 in
23:02 14.6 °F 11.7 °F 1005.6 in SW 6.4 mph 17.7 mph 83 % 0.0 in
23:12 14.2 °F 11.4 °F 1005.6 in SSW 6.4 mph 17.7 mph 83 % 0.0 in
23:17 14.2 °F 11.4 °F 1005.6 in SW 8.0 mph 16.1 mph 83 % 0.0 in
23:22 14.1 °F 11.4 °F 1005.6 in SSW 6.4 mph 17.7 mph 84 % 0.0 in
23:32 14.0 °F 11.3 °F 1006.0 in SW 9.7 mph 17.7 mph 84 % 0.0 in
23:42 14.3 °F 11.5 °F 1006.0 in SW 12.9 mph 16.1 mph 83 % 0.0 in
23:52 14.4 °F 11.4 °F 1006.0 in South 8.0 mph 27.4 mph 82 % 0.0 in
23:57 14.3 °F 11.5 °F 1006.0 in SSW 11.3 mph 27.4 mph 83 % 0.0 in
Meteo18
Compliments of Weather Underground - 4 mb

Script developed by  Jim McMurry - jmcmurry@mwt.net Adapted for the template by  Wim van der Kuil - Leuven-Template.eu

You find our weather info also at:

European Weather Network

Weather Underground

Equipment we use:

Weather-station
Davis Vue

Weather-program
Meteobridge

Weather-server
Raspberry PI 2 B+

Provider
1 and 1

Davis Vue

Meteobridge

Raspberry PI 2 B+

1 and 1